sensor_id;sensor_type;location;lat;lon;timestamp;temperature;humidity
75517;DHT22;64097;52.548;13.406;2023-08-17T06:02:07;24.90;53.70
75517;DHT22;64097;52.548;13.406;2023-08-17T06:04:34;25.00;53.70
75517;DHT22;64097;52.548;13.406;2023-08-17T06:07:00;25.00;53.80
75517;DHT22;64097;52.548;13.406;2023-08-17T06:09:25;25.00;53.70
75517;DHT22;64097;52.548;13.406;2023-08-17T06:11:51;25.10;53.90
75517;DHT22;64097;52.548;13.406;2023-08-17T06:14:17;25.10;53.80
75517;DHT22;64097;52.548;13.406;2023-08-17T06:16:43;25.10;53.80
75517;DHT22;64097;52.548;13.406;2023-08-17T06:19:08;25.20;53.90
75517;DHT22;64097;52.548;13.406;2023-08-17T06:21:34;25.20;53.90
75517;DHT22;64097;52.548;13.406;2023-08-17T06:23:59;25.30;54.00
75517;DHT22;64097;52.548;13.406;2023-08-17T06:26:25;25.30;54.00
75517;DHT22;64097;52.548;13.406;2023-08-17T06:28:51;25.30;54.00
75517;DHT22;64097;52.548;13.406;2023-08-17T06:31:16;25.30;54.00
75517;DHT22;64097;52.548;13.406;2023-08-17T06:33:42;25.40;53.90
75517;DHT22;64097;52.548;13.406;2023-08-17T06:36:08;25.40;53.80
75517;DHT22;64097;52.548;13.406;2023-08-17T06:38:33;25.50;53.80
75517;DHT22;64097;52.548;13.406;2023-08-17T06:40:59;25.50;53.80
75517;DHT22;64097;52.548;13.406;2023-08-17T06:43:25;25.60;53.80
75517;DHT22;64097;52.548;13.406;2023-08-17T06:45:50;25.60;53.80
75517;DHT22;64097;52.548;13.406;2023-08-17T06:48:16;25.60;53.70
75517;DHT22;64097;52.548;13.406;2023-08-17T06:50:42;25.60;53.70
75517;DHT22;64097;52.548;13.406;2023-08-17T06:53:07;25.70;53.80
75517;DHT22;64097;52.548;13.406;2023-08-17T06:55:33;25.70;53.80
75517;DHT22;64097;52.548;13.406;2023-08-17T06:57:59;25.70;53.60
75517;DHT22;64097;52.548;13.406;2023-08-17T07:00:24;25.80;53.40
75517;DHT22;64097;52.548;13.406;2023-08-17T07:02:50;25.80;53.30
75517;DHT22;64097;52.548;13.406;2023-08-17T07:05:16;25.80;53.10
75517;DHT22;64097;52.548;13.406;2023-08-17T07:07:42;25.80;52.90
75517;DHT22;64097;52.548;13.406;2023-08-17T07:10:09;25.90;53.00
75517;DHT22;64097;52.548;13.406;2023-08-17T07:12:36;25.90;53.10
75517;DHT22;64097;52.548;13.406;2023-08-17T07:15:02;25.90;52.70
75517;DHT22;64097;52.548;13.406;2023-08-17T07:17:30;26.00;52.80
75517;DHT22;64097;52.548;13.406;2023-08-17T07:19:55;26.10;52.80
75517;DHT22;64097;52.548;13.406;2023-08-17T07:22:21;26.10;52.70
75517;DHT22;64097;52.548;13.406;2023-08-17T07:24:47;26.10;52.60
75517;DHT22;64097;52.548;13.406;2023-08-17T07:27:12;26.20;52.50
75517;DHT22;64097;52.548;13.406;2023-08-17T07:29:38;26.20;52.30
75517;DHT22;64097;52.548;13.406;2023-08-17T07:32:04;26.20;52.20
75517;DHT22;64097;52.548;13.406;2023-08-17T07:34:30;26.20;52.10
75517;DHT22;64097;52.548;13.406;2023-08-17T07:36:57;26.20;52.10
75517;DHT22;64097;52.548;13.406;2023-08-17T07:39:22;26.20;52.00
75517;DHT22;64097;52.548;13.406;2023-08-17T07:41:48;26.20;52.00
75517;DHT22;64097;52.548;13.406;2023-08-17T07:44:14;26.20;52.00
75517;DHT22;64097;52.548;13.406;2023-08-17T07:46:40;26.20;52.00
75517;DHT22;64097;52.548;13.406;2023-08-17T07:49:06;26.20;52.00
75517;DHT22;64097;52.548;13.406;2023-08-17T07:51:32;26.20;52.20
75517;DHT22;64097;52.548;13.406;2023-08-17T07:54:00;26.20;52.30
75517;DHT22;64097;52.548;13.406;2023-08-17T07:56:26;26.20;52.40
75517;DHT22;64097;52.548;13.406;2023-08-17T07:58:53;26.30;52.60
75517;DHT22;64097;52.548;13.406;2023-08-17T08:01:19;26.30;52.70
75517;DHT22;64097;52.548;13.406;2023-08-17T08:03:45;26.40;52.80
75517;DHT22;64097;52.548;13.406;2023-08-17T08:06:10;26.40;52.70
75517;DHT22;64097;52.548;13.406;2023-08-17T08:08:36;26.40;52.70
75517;DHT22;64097;52.548;13.406;2023-08-17T08:11:02;26.50;52.70
75517;DHT22;64097;52.548;13.406;2023-08-17T08:13:30;26.50;52.50
75517;DHT22;64097;52.548;13.406;2023-08-17T08:15:56;26.60;52.40
75517;DHT22;64097;52.548;13.406;2023-08-17T08:18:21;26.60;52.40
75517;DHT22;64097;52.548;13.406;2023-08-17T08:20:48;26.60;52.50
75517;DHT22;64097;52.548;13.406;2023-08-17T08:23:14;26.70;52.50
75517;DHT22;64097;52.548;13.406;2023-08-17T08:25:39;26.70;52.50
75517;DHT22;64097;52.548;13.406;2023-08-17T08:28:05;26.70;52.40
75517;DHT22;64097;52.548;13.406;2023-08-17T08:30:31;26.80;52.60
75517;DHT22;64097;52.548;13.406;2023-08-17T08:32:57;26.80;52.60
75517;DHT22;64097;52.548;13.406;2023-08-17T08:35:23;26.90;52.80
75517;DHT22;64097;52.548;13.406;2023-08-17T08:37:50;26.90;52.50
75517;DHT22;64097;52.548;13.406;2023-08-17T08:40:17;27.00;52.50
75517;DHT22;64097;52.548;13.406;2023-08-17T08:42:43;27.00;52.50
75517;DHT22;64097;52.548;13.406;2023-08-17T08:45:10;27.00;52.40
75517;DHT22;64097;52.548;13.406;2023-08-17T08:47:39;27.00;52.60
75517;DHT22;64097;52.548;13.406;2023-08-17T08:50:08;27.10;52.90
75517;DHT22;64097;52.548;13.406;2023-08-17T08:52:35;27.10;53.00
75517;DHT22;64097;52.548;13.406;2023-08-17T08:55:10;27.00;53.10
75517;DHT22;64097;52.548;13.406;2023-08-17T08:57:37;27.00;53.10
75517;DHT22;64097;52.548;13.406;2023-08-17T09:00:03;27.00;53.20
75517;DHT22;64097;52.548;13.406;2023-08-17T09:02:30;27.00;53.30
75517;DHT22;64097;52.548;13.406;2023-08-17T09:04:56;27.00;53.40
75517;DHT22;64097;52.548;13.406;2023-08-17T09:07:22;27.00;53.50
75517;DHT22;64097;52.548;13.406;2023-08-17T09:09:48;26.90;53.50
75517;DHT22;64097;52.548;13.406;2023-08-17T09:12:14;26.90;53.60
75517;DHT22;64097;52.548;13.406;2023-08-17T09:14:40;26.90;53.60
75517;DHT22;64097;52.548;13.406;2023-08-17T09:17:07;26.90;53.70
75517;DHT22;64097;52.548;13.406;2023-08-17T09:19:33;26.90;53.60
75517;DHT22;64097;52.548;13.406;2023-08-17T09:22:00;26.90;53.70
75517;DHT22;64097;52.548;13.406;2023-08-17T09:24:36;26.90;53.80
75517;DHT22;64097;52.548;13.406;2023-08-17T09:27:03;26.90;53.90
75517;DHT22;64097;52.548;13.406;2023-08-17T09:29:29;26.90;54.00
75517;DHT22;64097;52.548;13.406;2023-08-17T09:32:06;26.90;54.00
75517;DHT22;64097;52.548;13.406;2023-08-17T09:34:32;27.00;54.20
75517;DHT22;64097;52.548;13.406;2023-08-17T09:37:05;27.00;54.10
75517;DHT22;64097;52.548;13.406;2023-08-17T09:39:34;27.00;54.10
75517;DHT22;64097;52.548;13.406;2023-08-17T09:41:59;27.10;54.20
75517;DHT22;64097;52.548;13.406;2023-08-17T09:44:26;27.10;54.30
75517;DHT22;64097;52.548;13.406;2023-08-17T09:46:55;27.20;54.30
75517;DHT22;64097;52.548;13.406;2023-08-17T09:49:23;27.20;54.20
75517;DHT22;64097;52.548;13.406;2023-08-17T09:51:50;27.20;54.10
75517;DHT22;64097;52.548;13.406;2023-08-17T09:54:22;27.30;54.20
75517;DHT22;64097;52.548;13.406;2023-08-17T09:56:52;27.30;54.10
75517;DHT22;64097;52.548;13.406;2023-08-17T09:59:18;27.30;54.20
75517;DHT22;64097;52.548;13.406;2023-08-17T10:01:47;27.40;54.20
75517;DHT22;64097;52.548;13.406;2023-08-17T10:04:17;27.40;54.20
75517;DHT22;64097;52.548;13.406;2023-08-17T10:06:48;27.40;54.10
75517;DHT22;64097;52.548;13.406;2023-08-17T10:09:16;27.50;54.20
75517;DHT22;64097;52.548;13.406;2023-08-17T10:11:46;27.50;54.00
75517;DHT22;64097;52.548;13.406;2023-08-17T10:14:21;27.60;54.10
75517;DHT22;64097;52.548;13.406;2023-08-17T10:16:53;27.60;53.90
75517;DHT22;64097;52.548;13.406;2023-08-17T10:22:17;27.70;53.60
75517;DHT22;64097;52.548;13.406;2023-08-17T10:24:45;27.70;53.50
75517;DHT22;64097;52.548;13.406;2023-08-17T10:27:11;27.70;53.50
75517;DHT22;64097;52.548;13.406;2023-08-17T10:29:39;27.70;53.50
75517;DHT22;64097;52.548;13.406;2023-08-17T10:32:06;27.70;53.60
75517;DHT22;64097;52.548;13.406;2023-08-17T10:34:34;27.70;53.60
75517;DHT22;64097;52.548;13.406;2023-08-17T10:37:00;27.60;53.70
75517;DHT22;64097;52.548;13.406;2023-08-17T10:39:28;27.60;53.80
75517;DHT22;64097;52.548;13.406;2023-08-17T10:41:54;27.60;53.90
75517;DHT22;64097;52.548;13.406;2023-08-17T10:44:45;27.70;54.10
75517;DHT22;64097;52.548;13.406;2023-08-17T10:47:25;27.60;54.10
75517;DHT22;64097;52.548;13.406;2023-08-17T10:49:56;27.70;54.10
75517;DHT22;64097;52.548;13.406;2023-08-17T10:52:32;27.80;54.30
75517;DHT22;64097;52.548;13.406;2023-08-17T10:55:06;27.80;54.30
75517;DHT22;64097;52.548;13.406;2023-08-17T11:00:19;27.90;53.70
75517;DHT22;64097;52.548;13.406;2023-08-17T11:02:57;27.90;53.80
75517;DHT22;64097;52.548;13.406;2023-08-17T11:05:47;28.00;53.70
75517;DHT22;64097;52.548;13.406;2023-08-17T11:11:12;27.90;53.50
75517;DHT22;64097;52.548;13.406;2023-08-17T11:13:47;28.00;53.70
75517;DHT22;64097;52.548;13.406;2023-08-17T11:16:16;27.90;53.70
75517;DHT22;64097;52.548;13.406;2023-08-17T11:18:42;27.90;53.70
75517;DHT22;64097;52.548;13.406;2023-08-17T11:21:11;27.90;53.70
75517;DHT22;64097;52.548;13.406;2023-08-17T11:23:37;27.90;53.90
75517;DHT22;64097;52.548;13.406;2023-08-17T11:26:04;27.90;53.90
75517;DHT22;64097;52.548;13.406;2023-08-17T11:28:30;27.90;54.00
75517;DHT22;64097;52.548;13.406;2023-08-17T11:31:03;27.90;54.10
75517;DHT22;64097;52.548;13.406;2023-08-17T11:33:30;27.90;54.10
75517;DHT22;64097;52.548;13.406;2023-08-17T11:36:02;27.90;54.20
75517;DHT22;64097;52.548;13.406;2023-08-17T11:38:35;27.90;54.20
75517;DHT22;64097;52.548;13.406;2023-08-17T11:41:02;27.90;54.30
75517;DHT22;64097;52.548;13.406;2023-08-17T11:43:29;27.90;54.40
75517;DHT22;64097;52.548;13.406;2023-08-17T11:45:55;28.00;54.50
75517;DHT22;64097;52.548;13.406;2023-08-17T11:48:21;28.00;54.50
75517;DHT22;64097;52.548;13.406;2023-08-17T11:50:48;28.10;54.60
75517;DHT22;64097;52.548;13.406;2023-08-17T11:53:14;28.10;54.50
75517;DHT22;64097;52.548;13.406;2023-08-17T11:55:41;28.20;54.40
75517;DHT22;64097;52.548;13.406;2023-08-17T11:58:06;28.30;54.40
75517;DHT22;64097;52.548;13.406;2023-08-17T12:00:37;28.30;54.30
75517;DHT22;64097;52.548;13.406;2023-08-17T12:03:05;28.30;54.40
75517;DHT22;64097;52.548;13.406;2023-08-17T12:05:31;28.30;54.40
75517;DHT22;64097;52.548;13.406;2023-08-17T12:07:59;28.40;54.40
75517;DHT22;64097;52.548;13.406;2023-08-17T12:10:28;28.40;54.40
75517;DHT22;64097;52.548;13.406;2023-08-17T12:12:56;28.50;54.40
75517;DHT22;64097;52.548;13.406;2023-08-17T12:15:22;28.50;54.30
75517;DHT22;64097;52.548;13.406;2023-08-17T12:17:49;28.60;54.30
75517;DHT22;64097;52.548;13.406;2023-08-17T12:20:21;28.60;54.40
75517;DHT22;64097;52.548;13.406;2023-08-17T12:22:47;28.70;54.50
75517;DHT22;64097;52.548;13.406;2023-08-17T12:25:13;28.70;54.40
75517;DHT22;64097;52.548;13.406;2023-08-17T12:27:40;28.70;54.40
75517;DHT22;64097;52.548;13.406;2023-08-17T12:30:25;28.80;54.40
75517;DHT22;64097;52.548;13.406;2023-08-17T12:32:50;28.80;54.40
75517;DHT22;64097;52.548;13.406;2023-08-17T12:35:16;28.90;54.30
75517;DHT22;64097;52.548;13.406;2023-08-17T12:37:42;28.90;54.30
75517;DHT22;64097;52.548;13.406;2023-08-17T12:40:08;28.90;54.30
75517;DHT22;64097;52.548;13.406;2023-08-17T12:42:35;28.90;54.40
75517;DHT22;64097;52.548;13.406;2023-08-17T12:45:00;28.90;54.40
75517;DHT22;64097;52.548;13.406;2023-08-17T12:47:26;28.90;54.40
75517;DHT22;64097;52.548;13.406;2023-08-17T12:49:52;28.90;54.50
75517;DHT22;64097;52.548;13.406;2023-08-17T12:52:18;29.00;54.60
75517;DHT22;64097;52.548;13.406;2023-08-17T12:54:43;29.00;54.40
75517;DHT22;64097;52.548;13.406;2023-08-17T12:57:09;29.00;54.40
75517;DHT22;64097;52.548;13.406;2023-08-17T12:59:34;29.10;54.50
75517;DHT22;64097;52.548;13.406;2023-08-17T13:02:00;29.20;54.50
75517;DHT22;64097;52.548;13.406;2023-08-17T13:04:26;29.20;54.30
75517;DHT22;64097;52.548;13.406;2023-08-17T13:06:51;29.20;54.30
75517;DHT22;64097;52.548;13.406;2023-08-17T13:09:18;29.30;54.30
75517;DHT22;64097;52.548;13.406;2023-08-17T13:11:45;29.40;53.90
75517;DHT22;64097;52.548;13.406;2023-08-17T13:14:14;29.40;53.50
75517;DHT22;64097;52.548;13.406;2023-08-17T13:16:41;29.40;53.30
75517;DHT22;64097;52.548;13.406;2023-08-17T13:19:07;29.40;53.30
75517;DHT22;64097;52.548;13.406;2023-08-17T13:21:33;29.40;53.30
75517;DHT22;64097;52.548;13.406;2023-08-17T13:23:58;29.40;53.20
75517;DHT22;64097;52.548;13.406;2023-08-17T13:26:24;29.40;53.20
75517;DHT22;64097;52.548;13.406;2023-08-17T13:28:50;29.40;53.30
75517;DHT22;64097;52.548;13.406;2023-08-17T13:31:15;29.50;53.30
75517;DHT22;64097;52.548;13.406;2023-08-17T13:33:41;29.50;53.20
75517;DHT22;64097;52.548;13.406;2023-08-17T13:36:07;29.50;53.20
75517;DHT22;64097;52.548;13.406;2023-08-17T13:38:32;29.50;53.00
75517;DHT22;64097;52.548;13.406;2023-08-17T13:40:58;29.50;53.00
75517;DHT22;64097;52.548;13.406;2023-08-17T13:43:24;29.50;53.10
75517;DHT22;64097;52.548;13.406;2023-08-17T13:45:49;29.50;53.10
75517;DHT22;64097;52.548;13.406;2023-08-17T13:48:15;29.50;53.00
75517;DHT22;64097;52.548;13.406;2023-08-17T13:50:41;29.50;53.00
75517;DHT22;64097;52.548;13.406;2023-08-17T13:53:06;29.50;53.20
75517;DHT22;64097;52.548;13.406;2023-08-17T13:55:51;29.50;53.00
75517;DHT22;64097;52.548;13.406;2023-08-17T13:58:16;29.50;53.00
